Mercedes — PCMC — position and weather

sailwx.info

Track history (hours):
 
Tides and Currents Weather Stations Pressure Air Temp Water Temp Dewpoint Dewpoint Depression Visibility Wind Speed Wind Dir Waves Ship Positions

Mercedes (Netherlands)

Brig, built 2005.

Last reported at 2017-Aug-17 00:53 UTC. Time now 2017-Aug-20 11:32 UTC.
Position N 54°23' E 013°53'.

Length 47 m; draft 3.4 m.

Type: Sailing vessel. MMSI: 244595000.

Date/timePositionNaut miles runAvg speedWind from/ knotsBaromVisibWave heightAir tempDewpointWater temp
2017-Aug-17 00:53N 54°23' E 013°53'5 7.4
2017-Aug-17 00:16N 54°27' E 013°50'2 7.4
2017-Aug-17 00:00N 54°29' E 013°48'5 7.5
2017-Aug-16 23:23N 54°33' E 013°45'3 7.4
2017-Aug-16 23:00N 54°35' E 013°41'5 7.1
2017-Aug-16 22:17N 54°39' E 013°35'2 7.0
2017-Aug-16 21:59N 54°40' E 013°32'3 7.0
2017-Aug-16 21:30N 54°42' E 013°28'22 6.8
2017-Aug-16 18:17N 54°37' E 012°51'2 7.1
2017-Aug-16 18:00N 54°36' E 012°48'5 7.1
2017-Aug-16 17:17N 54°34' E 012°40'2 7.0
2017-Aug-16 17:00N 54°33' E 012°37'10 6.5
2017-Aug-16 15:27N 54°26' E 012°23'2 4.9
2017-Aug-16 15:00N 54°25' E 012°21'6 5.9
2017-Aug-16 13:57N 54°20' E 012°13'7 7.2
2017-Aug-16 12:55N 54°14' E 012°06'8 5.9
2017-Aug-16 11:29N 54°06' E 012°07'0 0.0
2017-Aug-16 03:16N 54°06' E 012°08'0 0.0
2017-Aug-16 02:58N 54°06' E 012°08'0 0.0
2017-Aug-15 19:58N 54°06' E 012°08'0 0.0
2017-Aug-15 18:01N 54°06' E 012°08'0 0.1
2017-Aug-15 17:58N 54°06' E 012°08'0 0.0
2017-Aug-15 16:01N 54°06' E 012°08'0 0.1
2017-Aug-15 15:55N 54°06' E 012°08'0 0.0
2017-Aug-15 07:45N 54°06' E 012°08'0 0.0
2017-Aug-15 06:45N 54°06' E 012°08'0 0.0
2017-Aug-15 06:30N 54°06' E 012°08'0 0.0
2017-Aug-15 05:30N 54°06' E 012°08'0 0.0
2017-Aug-15 02:00N 54°06' E 012°08'0 0.0
2017-Aug-14 21:45N 54°06' E 012°08'0 0.0
2017-Aug-14 21:30N 54°06' E 012°08'0 0.0
2017-Aug-14 20:57N 54°06' E 012°08'0 0.0
2017-Aug-14 18:45N 54°06' E 012°08'0 0.0
2017-Aug-14 18:30N 54°06' E 012°08'0 0.0
2017-Aug-14 14:45N 54°06' E 012°08'0 0.0
2017-Aug-14 14:30N 54°06' E 012°08'0 0.0
2017-Aug-14 14:00N 54°06' E 012°08'0 0.0
2017-Aug-14 13:30N 54°06' E 012°08'0 0.0
2017-Aug-14 12:30N 54°06' E 012°08'0 0.0
2017-Aug-14 11:30N 54°06' E 012°08'0 0.0
2017-Aug-14 05:13N 54°06' E 012°07'0 0.0
2017-Aug-14 01:40N 54°06' E 012°07'0 0.0
2017-Aug-14 00:10N 54°06' E 012°07'0 0.0
2017-Aug-13 23:49N 54°06' E 012°07'0 0.0
2017-Aug-13 23:16N 54°06' E 012°07'0 0.0
2017-Aug-13 20:24N 54°06' E 012°07'0 0.0
2017-Aug-13 19:00N 54°06' E 012°07'0 0.0
2017-Aug-13 18:27N 54°06' E 012°07'0 0.1
2017-Aug-13 17:02N 54°06' E 012°07'0 3.8
2017-Aug-13 17:00N 54°06' E 012°07'4 8.0
2017-Aug-13 16:30N 54°10' E 012°06'1 2.4
2017-Aug-13 16:00N 54°11' E 012°06'3 4.5
2017-Aug-13 15:25N 54°13' E 012°06'2 5.7
2017-Aug-13 15:00N 54°16' E 012°08'2 3.5
2017-Aug-13 14:27N 54°17' E 012°10'3 5.8
2017-Aug-13 14:00N 54°15' E 012°08'4 3.6
2017-Aug-13 12:47N 54°11' E 012°06'0 0.0
2017-Aug-13 12:30N 54°11' E 012°06'0 0.8
2017-Aug-13 12:00N 54°10' E 012°06'2 3.8
2017-Aug-13 11:31N 54°12' E 012°05'6 4.7
2017-Aug-13 10:17N 54°18' E 012°07'2 6.9
2017-Aug-13 10:00N 54°16' E 012°06'3 6.2
2017-Aug-13 09:29N 54°13' E 012°06'3 5.6
2017-Aug-13 08:59N 54°10' E 012°06'3 6.7
2017-Aug-13 08:29N 54°07' E 012°06'1 2.5
2017-Aug-13 07:57N 54°06' E 012°07'0 0.0
2017-Aug-13 07:28N 54°06' E 012°07'0 0.0
2017-Aug-13 04:28N 54°06' E 012°07'0 0.0
2017-Aug-13 03:58N 54°06' E 012°07'0 0.0
2017-Aug-13 02:28N 54°06' E 012°07'0 0.0
2017-Aug-12 21:17N 54°06' E 012°07'0 1.1
2017-Aug-12 21:00N 54°06' E 012°08'0 0.3
2017-Aug-12 20:30N 54°06' E 012°08'2 1.7
2017-Aug-12 19:14N 54°07' E 012°06'1 4.5
2017-Aug-12 19:01N 54°08' E 012°06'2 3.4
2017-Aug-12 18:31N 54°10' E 012°06'3 1.3
2017-Aug-12 16:21N 54°12' E 012°03'2 5.7
2017-Aug-12 16:00N 54°11' E 012°06'3 6.7
2017-Aug-12 15:30N 54°08' E 012°06'2 2.4
2017-Aug-12 14:37N 54°06' E 012°07'0 0.0
2017-Aug-12 14:23N 54°06' E 012°07'0 0.0
2017-Aug-12 13:56N 54°06' E 012°07'0 0.2
2017-Aug-12 13:31N 54°06' E 012°08'0 0.1
2017-Aug-12 12:59N 54°06' E 012°08'2 2.0
2017-Aug-12 11:59N 54°07' E 012°06'2 4.6
2017-Aug-12 11:30N 54°10' E 012°06'2 4.8
2017-Aug-12 11:01N 54°12' E 012°05'2 1.6
2017-Aug-12 09:38N 54°14' E 012°05'3 6.4
2017-Aug-12 09:10N 54°11' E 012°05'1 5.6
2017-Aug-12 09:01N 54°10' E 012°06'5 2.2
2017-Aug-12 06:55N 54°06' E 012°07'0 0.0
2017-Aug-12 05:28N 54°06' E 012°07'0 0.0
2017-Aug-12 04:52N 54°06' E 012°07'0 0.0
2017-Aug-12 03:55N 54°06' E 012°07'0 0.0
2017-Aug-12 01:37N 54°06' E 012°07'0 0.1
2017-Aug-12 01:28N 54°06' E 012°07'0 0.0
2017-Aug-12 00:58N 54°06' E 012°07'0 0.0
2017-Aug-11 23:46N 54°06' E 012°07'0 0.0
2017-Aug-11 23:28N 54°06' E 012°07'0 0.0
2017-Aug-11 22:34N 54°06' E 012°07'0 0.1
2017-Aug-11 22:28N 54°06' E 012°07'0 0.0
2017-Aug-11 21:43N 54°06' E 012°07'0 0.0
2017-Aug-11 21:30N 54°06' E 012°07'0 0.0
2017-Aug-11 20:47N 54°06' E 012°07'1 5.1
2017-Aug-11 20:30N 54°07' E 012°06'3 5.5
2017-Aug-11 19:54N 54°10' E 012°06'2 5.5
2017-Aug-11 19:30N 54°12' E 012°04'1 2.8
2017-Aug-11 19:00N 54°12' E 012°02'8 3.8
2017-Aug-11 16:59N 54°06' E 012°07'0 0.0
2017-Aug-11 16:31N 54°06' E 012°07'0 0.0
2017-Aug-11 16:00N 54°06' E 012°07'0 0.0
2017-Aug-11 15:30N 54°06' E 012°07'0 0.2
2017-Aug-11 13:27N 54°06' E 012°08'0 0.8
2017-Aug-11 13:00N 54°06' E 012°07'1 2.9
2017-Aug-11 12:29N 54°07' E 012°06'2 4.0
2017-Aug-11 12:00N 54°09' E 012°06'2 4.6
2017-Aug-11 11:30N 54°11' E 012°05'0 0.8
2017-Aug-11 11:00N 54°11' E 012°06'2 3.2
2017-Aug-11 10:29N 54°10' E 012°07'1 0.9
2017-Aug-11 09:33N 54°09' E 012°06'0 0.5
2017-Aug-11 09:14N 54°09' E 012°06'1 4.9
2017-Aug-11 09:00N 54°08' E 012°06'2 4.3
2017-Aug-11 08:30N 54°06' E 012°07'1 1.2
2017-Aug-11 08:00N 54°06' E 012°07'0 0.0
2017-Aug-11 07:30N 54°06' E 012°07'0 0.0
2017-Aug-11 06:59N 54°06' E 012°07'0 0.0
2017-Aug-11 06:30N 54°06' E 012°07'0 0.0
2017-Aug-11 05:05N 54°06' E 012°07'0 0.0
2017-Aug-11 04:45N 54°06' E 012°07'0 0.0
2017-Aug-11 03:47N 54°06' E 012°07'0 0.0
2017-Aug-11 03:25N 54°06' E 012°07'0 0.0
2017-Aug-11 03:00N 54°06' E 012°07'0 0.0
2017-Aug-10 23:47N 54°06' E 012°07'0 0.0
2017-Aug-10 23:30N 54°06' E 012°07'0 0.0
2017-Aug-10 23:01N 54°06' E 012°07'0 0.0
2017-Aug-10 22:31N 54°06' E 012°07'6 2.3
2017-Aug-10 19:58N 54°11' E 012°05'1 1.9
2017-Aug-10 19:24N 54°12' E 012°04'1 1.6
2017-Aug-10 19:00N 54°13' E 012°04'1 2.9
2017-Aug-10 18:30N 54°11' E 012°05'3 5.5
2017-Aug-10 18:00N 54°09' E 012°06'3 5.3
2017-Aug-10 17:30N 54°06' E 012°06'1 0.2
2017-Aug-10 13:23N 54°06' E 012°07'0 0.0
2017-Aug-10 12:50N 54°06' E 012°07'0 0.0
2017-Aug-10 12:29N 54°06' E 012°07'0 0.0
2017-Aug-10 11:23N 54°06' E 012°07'0 0.0
2017-Aug-10 09:08N 54°06' E 012°07'0 0.0
2017-Aug-10 08:56N 54°06' E 012°07'0 0.0
2017-Aug-10 03:47N 54°06' E 012°07'0 0.0
2017-Aug-10 03:29N 54°06' E 012°07'0 0.0
2017-Aug-09 23:47N 54°06' E 012°07'0 0.0
2017-Aug-09 23:29N 54°06' E 012°07'0 0.0
2017-Aug-09 19:44N 54°06' E 012°07'0 0.0
2017-Aug-09 19:29N 54°06' E 012°07'0 0.0
2017-Aug-09 17:32N 54°06' E 012°07'0 0.0
2017-Aug-09 17:29N 54°06' E 012°07'0 0.0
2017-Aug-09 16:59N 54°06' E 012°07'0 0.0
2017-Aug-09 15:32N 54°06' E 012°07'0 0.1
2017-Aug-09 15:26N 54°06' E 012°07'0 0.0
2017-Aug-09 12:17N 54°06' E 012°07'0 0.0
2017-Aug-09 11:59N 54°06' E 012°07'0 0.0
2017-Aug-09 08:17N 54°06' E 012°07'0 0.0
2017-Aug-09 07:59N 54°06' E 012°07'0 0.0
2017-Aug-09 07:26N 54°06' E 012°07'0 0.0
2017-Aug-09 06:53N 54°06' E 012°07'0 0.0
2017-Aug-09 05:14N 54°06' E 012°07'0 0.0
2017-Aug-09 04:14N 54°06' E 012°07'0 0.0
2017-Aug-09 02:59N 54°06' E 012°07'0 0.0
2017-Aug-09 02:29N 54°06' E 012°07'0 0.0
2017-Aug-09 01:50N 54°06' E 012°07'0 0.0
2017-Aug-09 01:17N 54°06' E 012°07'0 0.0
2017-Aug-09 00:29N 54°06' E 012°07'0 0.0
2017-Aug-08 23:22N 54°06' E 012°07'0 0.0
2017-Aug-08 22:28N 54°06' E 012°07'0 0.0
2017-Aug-08 20:16N 54°06' E 012°07'0 0.0
2017-Aug-08 19:58N 54°06' E 012°07'0 0.0
2017-Aug-08 17:43N 54°06' E 012°07'0 0.0
2017-Aug-08 17:22N 54°06' E 012°07'0 0.0
2017-Aug-08 16:55N 54°06' E 012°07'1 1.6
2017-Aug-08 16:30N 54°06' E 012°07'3 6.7
2017-Aug-08 16:00N 54°09' E 012°06'9 7.7
2017-Aug-08 14:47N 54°16' E 011°54'2 8.8
2017-Aug-08 14:30N 54°17' E 011°51'4 8.7
2017-Aug-08 14:00N 54°20' E 011°45'4 8.7
2017-Aug-08 13:30N 54°22' E 011°39'4 8.4
2017-Aug-08 12:59N 54°25' E 011°33'4 7.9
2017-Aug-08 12:30N 54°27' E 011°27'4 7.4
2017-Aug-08 12:00N 54°29' E 011°22'4 7.3
2017-Aug-08 11:30N 54°31' E 011°17'3 6.8
2017-Aug-08 11:00N 54°33' E 011°12'3 7.0
2017-Aug-08 10:30N 54°34' E 011°06'4 7.8
2017-Aug-08 10:00N 54°34' E 010°59'4 7.7
2017-Aug-08 09:30N 54°33' E 010°53'4 8.0
2017-Aug-08 09:00N 54°32' E 010°46'4 8.1
2017-Aug-08 08:30N 54°31' E 010°39'4 8.2
2017-Aug-08 08:00N 54°31' E 010°32'7 8.4
2017-Aug-08 07:13N 54°29' E 010°21'5 8.7
2017-Aug-08 06:42N 54°27' E 010°15'2 9.0
2017-Aug-08 06:30N 54°25' E 010°13'4 7.9
2017-Aug-08 05:59N 54°22' E 010°09'22 6.3
2017-Aug-08 02:26N 54°12' E 009°34'4 8.3
2017-Aug-08 01:54N 54°11' E 009°27'3 8.4
2017-Aug-08 01:30N 54°09' E 009°22'4 7.9
2017-Aug-08 00:58N 54°05' E 009°19'4 8.6
2017-Aug-08 00:30N 54°01' E 009°18'4 8.2
2017-Aug-07 23:59N 53°58' E 009°15'4 8.6
2017-Aug-07 23:30N 53°54' E 009°10'1 2.4
2017-Aug-07 23:01N 53°54' E 009°09'3 6.2
2017-Aug-07 22:30N 53°52' E 009°04'510.0
2017-Aug-07 22:00N 53°51' E 008°56'510.6
2017-Aug-07 21:30N 53°50' E 008°47'610.4
2017-Aug-07 20:56N 53°55' E 008°41'22 7.6
2017-Aug-07 18:02N 53°54' E 008°03'1 8.9
2017-Aug-07 17:53N 53°53' E 008°05'3 8.6
2017-Aug-07 17:29N 53°50' E 008°07'5 9.6
2017-Aug-07 16:59N 53°46' E 008°11'510.6
2017-Aug-07 16:30N 53°43' E 008°18'611.7
2017-Aug-07 16:00N 53°39' E 008°25'612.2
2017-Aug-07 15:30N 53°34' E 008°32'5 9.7
2017-Aug-07 15:00N 53°30' E 008°30'611.4
2017-Aug-07 14:30N 53°24' E 008°30'4 8.7
2017-Aug-07 14:00N 53°20' E 008°29'1 2.7
2017-Aug-07 13:30N 53°18' E 008°30'4 8.4
2017-Aug-07 13:00N 53°14' E 008°29'4 7.6
2017-Aug-07 12:30N 53°11' E 008°33'3 5.5
2017-Aug-07 12:00N 53°10' E 008°37'0 0.0
2017-Aug-07 11:31N 53°10' E 008°37'0 0.0
2017-Aug-07 11:00N 53°10' E 008°37'0 0.0
2017-Aug-07 10:30N 53°10' E 008°37'0 0.0
2017-Aug-07 10:00N 53°10' E 008°37'0 0.0
2017-Aug-07 09:31N 53°10' E 008°37'0 0.0
2017-Aug-07 09:00N 53°10' E 008°37'0 0.0
2017-Aug-07 08:30N 53°10' E 008°37'0 0.0
2017-Aug-07 08:00N 53°10' E 008°37'0 0.0
2017-Aug-07 07:30N 53°10' E 008°37'0 0.0
2017-Aug-07 07:01N 53°10' E 008°37'0 0.0
2017-Aug-07 06:30N 53°10' E 008°37'0 0.0
2017-Aug-07 06:00N 53°10' E 008°37'0 0.0
2017-Aug-07 05:30N 53°10' E 008°37'0 0.0
2017-Aug-07 05:00N 53°10' E 008°37'0 0.0
2017-Aug-07 04:30N 53°10' E 008°37'0 0.0
2017-Aug-07 04:00N 53°10' E 008°37'0 0.0
2017-Aug-07 03:30N 53°10' E 008°37'0 0.0
2017-Aug-07 03:00N 53°10' E 008°37'0 0.0
2017-Aug-07 02:30N 53°10' E 008°37'0 0.0
2017-Aug-07 02:00N 53°10' E 008°37'0 0.0
2017-Aug-07 01:30N 53°10' E 008°37'0 0.0
2017-Aug-07 01:00N 53°10' E 008°37'  
Track history (hours):
 
Tides and Currents Weather Stations Pressure Air Temp Water Temp Dewpoint Dewpoint Depression Visibility Wind Speed Wind Dir Waves Ship Positions

Mercedes (Netherlands)

Brig, built 2005.

Last reported at 2017-Aug-17 00:53 UTC. Time now 2017-Aug-20 11:32 UTC.
Position N 54°23' E 013°53'.

Length 47 m; draft 3.4 m.

Type: Sailing vessel. MMSI: 244595000.

Date/timePositionNaut miles runAvg speedWind from/ knotsBaromVisibWave heightAir tempDewpointWater temp
2017-Aug-17 00:53N 54°23' E 013°53'5 7.4
2017-Aug-17 00:16N 54°27' E 013°50'2 7.4
2017-Aug-17 00:00N 54°29' E 013°48'5 7.5
2017-Aug-16 23:23N 54°33' E 013°45'3 7.4
2017-Aug-16 23:00N 54°35' E 013°41'5 7.1
2017-Aug-16 22:17N 54°39' E 013°35'2 7.0
2017-Aug-16 21:59N 54°40' E 013°32'3 7.0
2017-Aug-16 21:30N 54°42' E 013°28'22 6.8
2017-Aug-16 18:17N 54°37' E 012°51'2 7.1
2017-Aug-16 18:00N 54°36' E 012°48'5 7.1
2017-Aug-16 17:17N 54°34' E 012°40'2 7.0
2017-Aug-16 17:00N 54°33' E 012°37'10 6.5
2017-Aug-16 15:27N 54°26' E 012°23'2 4.9
2017-Aug-16 15:00N 54°25' E 012°21'6 5.9
2017-Aug-16 13:57N 54°20' E 012°13'7 7.2
2017-Aug-16 12:55N 54°14' E 012°06'8 5.9
2017-Aug-16 11:29N 54°06' E 012°07'0 0.0
2017-Aug-16 03:16N 54°06' E 012°08'0 0.0
2017-Aug-16 02:58N 54°06' E 012°08'0 0.0
2017-Aug-15 19:58N 54°06' E 012°08'0 0.0
2017-Aug-15 18:01N 54°06' E 012°08'0 0.1
2017-Aug-15 17:58N 54°06' E 012°08'0 0.0
2017-Aug-15 16:01N 54°06' E 012°08'0 0.1
2017-Aug-15 15:55N 54°06' E 012°08'0 0.0
2017-Aug-15 07:45N 54°06' E 012°08'0 0.0
2017-Aug-15 06:45N 54°06' E 012°08'0 0.0
2017-Aug-15 06:30N 54°06' E 012°08'0 0.0
2017-Aug-15 05:30N 54°06' E 012°08'0 0.0
2017-Aug-15 02:00N 54°06' E 012°08'0 0.0
2017-Aug-14 21:45N 54°06' E 012°08'0 0.0
2017-Aug-14 21:30N 54°06' E 012°08'0 0.0
2017-Aug-14 20:57N 54°06' E 012°08'0 0.0
2017-Aug-14 18:45N 54°06' E 012°08'0 0.0
2017-Aug-14 18:30N 54°06' E 012°08'0 0.0
2017-Aug-14 14:45N 54°06' E 012°08'0 0.0
2017-Aug-14 14:30N 54°06' E 012°08'0 0.0
2017-Aug-14 14:00N 54°06' E 012°08'0 0.0
2017-Aug-14 13:30N 54°06' E 012°08'0 0.0
2017-Aug-14 12:30N 54°06' E 012°08'0 0.0
2017-Aug-14 11:30N 54°06' E 012°08'0 0.0
2017-Aug-14 05:13N 54°06' E 012°07'0 0.0
2017-Aug-14 01:40N 54°06' E 012°07'0 0.0
2017-Aug-14 00:10N 54°06' E 012°07'0 0.0
2017-Aug-13 23:49N 54°06' E 012°07'0 0.0
2017-Aug-13 23:16N 54°06' E 012°07'0 0.0
2017-Aug-13 20:24N 54°06' E 012°07'0 0.0
2017-Aug-13 19:00N 54°06' E 012°07'0 0.0
2017-Aug-13 18:27N 54°06' E 012°07'0 0.1
2017-Aug-13 17:02N 54°06' E 012°07'0 3.8
2017-Aug-13 17:00N 54°06' E 012°07'4 8.0
2017-Aug-13 16:30N 54°10' E 012°06'1 2.4
2017-Aug-13 16:00N 54°11' E 012°06'3 4.5
2017-Aug-13 15:25N 54°13' E 012°06'2 5.7
2017-Aug-13 15:00N 54°16' E 012°08'2 3.5
2017-Aug-13 14:27N 54°17' E 012°10'3 5.8
2017-Aug-13 14:00N 54°15' E 012°08'4 3.6
2017-Aug-13 12:47N 54°11' E 012°06'0 0.0
2017-Aug-13 12:30N 54°11' E 012°06'0 0.8
2017-Aug-13 12:00N 54°10' E 012°06'2 3.8
2017-Aug-13 11:31N 54°12' E 012°05'6 4.7
2017-Aug-13 10:17N 54°18' E 012°07'2 6.9
2017-Aug-13 10:00N 54°16' E 012°06'3 6.2
2017-Aug-13 09:29N 54°13' E 012°06'3 5.6
2017-Aug-13 08:59N 54°10' E 012°06'3 6.7
2017-Aug-13 08:29N 54°07' E 012°06'1 2.5
2017-Aug-13 07:57N 54°06' E 012°07'0 0.0
2017-Aug-13 07:28N 54°06' E 012°07'0 0.0
2017-Aug-13 04:28N 54°06' E 012°07'0 0.0
2017-Aug-13 03:58N 54°06' E 012°07'0 0.0
2017-Aug-13 02:28N 54°06' E 012°07'0 0.0
2017-Aug-12 21:17N 54°06' E 012°07'0 1.1
2017-Aug-12 21:00N 54°06' E 012°08'0 0.3
2017-Aug-12 20:30N 54°06' E 012°08'2 1.7
2017-Aug-12 19:14N 54°07' E 012°06'1 4.5
2017-Aug-12 19:01N 54°08' E 012°06'2 3.4
2017-Aug-12 18:31N 54°10' E 012°06'3 1.3
2017-Aug-12 16:21N 54°12' E 012°03'2 5.7
2017-Aug-12 16:00N 54°11' E 012°06'3 6.7
2017-Aug-12 15:30N 54°08' E 012°06'2 2.4
2017-Aug-12 14:37N 54°06' E 012°07'0 0.0
2017-Aug-12 14:23N 54°06' E 012°07'0 0.0
2017-Aug-12 13:56N 54°06' E 012°07'0 0.2
2017-Aug-12 13:31N 54°06' E 012°08'0 0.1
2017-Aug-12 12:59N 54°06' E 012°08'2 2.0
2017-Aug-12 11:59N 54°07' E 012°06'2 4.6
2017-Aug-12 11:30N 54°10' E 012°06'2 4.8
2017-Aug-12 11:01N 54°12' E 012°05'2 1.6
2017-Aug-12 09:38N 54°14' E 012°05'3 6.4
2017-Aug-12 09:10N 54°11' E 012°05'1 5.6
2017-Aug-12 09:01N 54°10' E 012°06'5 2.2
2017-Aug-12 06:55N 54°06' E 012°07'0 0.0
2017-Aug-12 05:28N 54°06' E 012°07'0 0.0
2017-Aug-12 04:52N 54°06' E 012°07'0 0.0
2017-Aug-12 03:55N 54°06' E 012°07'0 0.0
2017-Aug-12 01:37N 54°06' E 012°07'0 0.1
2017-Aug-12 01:28N 54°06' E 012°07'0 0.0
2017-Aug-12 00:58N 54°06' E 012°07'0 0.0
2017-Aug-11 23:46N 54°06' E 012°07'0 0.0
2017-Aug-11 23:28N 54°06' E 012°07'0 0.0
2017-Aug-11 22:34N 54°06' E 012°07'0 0.1
2017-Aug-11 22:28N 54°06' E 012°07'0 0.0
2017-Aug-11 21:43N 54°06' E 012°07'0 0.0
2017-Aug-11 21:30N 54°06' E 012°07'0 0.0
2017-Aug-11 20:47N 54°06' E 012°07'1 5.1
2017-Aug-11 20:30N 54°07' E 012°06'3 5.5
2017-Aug-11 19:54N 54°10' E 012°06'2 5.5
2017-Aug-11 19:30N 54°12' E 012°04'1 2.8
2017-Aug-11 19:00N 54°12' E 012°02'8 3.8
2017-Aug-11 16:59N 54°06' E 012°07'0 0.0
2017-Aug-11 16:31N 54°06' E 012°07'0 0.0
2017-Aug-11 16:00N 54°06' E 012°07'0 0.0
2017-Aug-11 15:30N 54°06' E 012°07'0 0.2
2017-Aug-11 13:27N 54°06' E 012°08'0 0.8
2017-Aug-11 13:00N 54°06' E 012°07'1 2.9
2017-Aug-11 12:29N 54°07' E 012°06'2 4.0
2017-Aug-11 12:00N 54°09' E 012°06'2 4.6
2017-Aug-11 11:30N 54°11' E 012°05'0 0.8
2017-Aug-11 11:00N 54°11' E 012°06'2 3.2
2017-Aug-11 10:29N 54°10' E 012°07'1 0.9
2017-Aug-11 09:33N 54°09' E 012°06'0 0.5
2017-Aug-11 09:14N 54°09' E 012°06'1 4.9
2017-Aug-11 09:00N 54°08' E 012°06'2 4.3
2017-Aug-11 08:30N 54°06' E 012°07'1 1.2
2017-Aug-11 08:00N 54°06' E 012°07'0 0.0
2017-Aug-11 07:30N 54°06' E 012°07'0 0.0
2017-Aug-11 06:59N 54°06' E 012°07'0 0.0
2017-Aug-11 06:30N 54°06' E 012°07'0 0.0
2017-Aug-11 05:05N 54°06' E 012°07'0 0.0
2017-Aug-11 04:45N 54°06' E 012°07'0 0.0
2017-Aug-11 03:47N 54°06' E 012°07'0 0.0
2017-Aug-11 03:25N 54°06' E 012°07'0 0.0
2017-Aug-11 03:00N 54°06' E 012°07'0 0.0
2017-Aug-10 23:47N 54°06' E 012°07'0 0.0
2017-Aug-10 23:30N 54°06' E 012°07'0 0.0
2017-Aug-10 23:01N 54°06' E 012°07'0 0.0
2017-Aug-10 22:31N 54°06' E 012°07'6 2.3
2017-Aug-10 19:58N 54°11' E 012°05'1 1.9
2017-Aug-10 19:24N 54°12' E 012°04'1 1.6
2017-Aug-10 19:00N 54°13' E 012°04'1 2.9
2017-Aug-10 18:30N 54°11' E 012°05'3 5.5
2017-Aug-10 18:00N 54°09' E 012°06'3 5.3
2017-Aug-10 17:30N 54°06' E 012°06'1 0.2
2017-Aug-10 13:23N 54°06' E 012°07'0 0.0
2017-Aug-10 12:50N 54°06' E 012°07'0 0.0
2017-Aug-10 12:29N 54°06' E 012°07'0 0.0
2017-Aug-10 11:23N 54°06' E 012°07'0 0.0
2017-Aug-10 09:08N 54°06' E 012°07'0 0.0
2017-Aug-10 08:56N 54°06' E 012°07'0 0.0
2017-Aug-10 03:47N 54°06' E 012°07'0 0.0
2017-Aug-10 03:29N 54°06' E 012°07'0 0.0
2017-Aug-09 23:47N 54°06' E 012°07'0 0.0
2017-Aug-09 23:29N 54°06' E 012°07'0 0.0
2017-Aug-09 19:44N 54°06' E 012°07'0 0.0
2017-Aug-09 19:29N 54°06' E 012°07'0 0.0
2017-Aug-09 17:32N 54°06' E 012°07'0 0.0
2017-Aug-09 17:29N 54°06' E 012°07'0 0.0
2017-Aug-09 16:59N 54°06' E 012°07'0 0.0
2017-Aug-09 15:32N 54°06' E 012°07'0 0.1
2017-Aug-09 15:26N 54°06' E 012°07'0 0.0
2017-Aug-09 12:17N 54°06' E 012°07'0 0.0
2017-Aug-09 11:59N 54°06' E 012°07'0 0.0
2017-Aug-09 08:17N 54°06' E 012°07'0 0.0
2017-Aug-09 07:59N 54°06' E 012°07'0 0.0
2017-Aug-09 07:26N 54°06' E 012°07'0 0.0
2017-Aug-09 06:53N 54°06' E 012°07'0 0.0
2017-Aug-09 05:14N 54°06' E 012°07'0 0.0
2017-Aug-09 04:14N 54°06' E 012°07'0 0.0
2017-Aug-09 02:59N 54°06' E 012°07'0 0.0
2017-Aug-09 02:29N 54°06' E 012°07'0 0.0
2017-Aug-09 01:50N 54°06' E 012°07'0 0.0
2017-Aug-09 01:17N 54°06' E 012°07'0 0.0
2017-Aug-09 00:29N 54°06' E 012°07'0 0.0
2017-Aug-08 23:22N 54°06' E 012°07'0 0.0
2017-Aug-08 22:28N 54°06' E 012°07'0 0.0
2017-Aug-08 20:16N 54°06' E 012°07'0 0.0
2017-Aug-08 19:58N 54°06' E 012°07'0 0.0
2017-Aug-08 17:43N 54°06' E 012°07'0 0.0
2017-Aug-08 17:22N 54°06' E 012°07'0 0.0
2017-Aug-08 16:55N 54°06' E 012°07'1 1.6
2017-Aug-08 16:30N 54°06' E 012°07'3 6.7
2017-Aug-08 16:00N 54°09' E 012°06'9 7.7
2017-Aug-08 14:47N 54°16' E 011°54'2 8.8
2017-Aug-08 14:30N 54°17' E 011°51'4 8.7
2017-Aug-08 14:00N 54°20' E 011°45'4 8.7
2017-Aug-08 13:30N 54°22' E 011°39'4 8.4
2017-Aug-08 12:59N 54°25' E 011°33'4 7.9
2017-Aug-08 12:30N 54°27' E 011°27'4 7.4
2017-Aug-08 12:00N 54°29' E 011°22'4 7.3
2017-Aug-08 11:30N 54°31' E 011°17'3 6.8
2017-Aug-08 11:00N 54°33' E 011°12'3 7.0
2017-Aug-08 10:30N 54°34' E 011°06'4 7.8
2017-Aug-08 10:00N 54°34' E 010°59'4 7.7
2017-Aug-08 09:30N 54°33' E 010°53'4 8.0
2017-Aug-08 09:00N 54°32' E 010°46'4 8.1
2017-Aug-08 08:30N 54°31' E 010°39'4 8.2
2017-Aug-08 08:00N 54°31' E 010°32'7 8.4
2017-Aug-08 07:13N 54°29' E 010°21'5 8.7
2017-Aug-08 06:42N 54°27' E 010°15'2 9.0
2017-Aug-08 06:30N 54°25' E 010°13'4 7.9
2017-Aug-08 05:59N 54°22' E 010°09'22 6.3
2017-Aug-08 02:26N 54°12' E 009°34'4 8.3
2017-Aug-08 01:54N 54°11' E 009°27'3 8.4
2017-Aug-08 01:30N 54°09' E 009°22'4 7.9
2017-Aug-08 00:58N 54°05' E 009°19'4 8.6
2017-Aug-08 00:30N 54°01' E 009°18'4 8.2
2017-Aug-07 23:59N 53°58' E 009°15'4 8.6
2017-Aug-07 23:30N 53°54' E 009°10'1 2.4
2017-Aug-07 23:01N 53°54' E 009°09'3 6.2
2017-Aug-07 22:30N 53°52' E 009°04'510.0
2017-Aug-07 22:00N 53°51' E 008°56'510.6
2017-Aug-07 21:30N 53°50' E 008°47'610.4
2017-Aug-07 20:56N 53°55' E 008°41'22 7.6
2017-Aug-07 18:02N 53°54' E 008°03'1 8.9
2017-Aug-07 17:53N 53°53' E 008°05'3 8.6
2017-Aug-07 17:29N 53°50' E 008°07'5 9.6
2017-Aug-07 16:59N 53°46' E 008°11'510.6
2017-Aug-07 16:30N 53°43' E 008°18'611.7
2017-Aug-07 16:00N 53°39' E 008°25'612.2
2017-Aug-07 15:30N 53°34' E 008°32'5 9.7
2017-Aug-07 15:00N 53°30' E 008°30'611.4
2017-Aug-07 14:30N 53°24' E 008°30'4 8.7
2017-Aug-07 14:00N 53°20' E 008°29'1 2.7
2017-Aug-07 13:30N 53°18' E 008°30'4 8.4
2017-Aug-07 13:00N 53°14' E 008°29'4 7.6
2017-Aug-07 12:30N 53°11' E 008°33'3 5.5
2017-Aug-07 12:00N 53°10' E 008°37'0 0.0
2017-Aug-07 11:31N 53°10' E 008°37'0 0.0
2017-Aug-07 11:00N 53°10' E 008°37'0 0.0
2017-Aug-07 10:30N 53°10' E 008°37'0 0.0
2017-Aug-07 10:00N 53°10' E 008°37'0 0.0
2017-Aug-07 09:31N 53°10' E 008°37'0 0.0
2017-Aug-07 09:00N 53°10' E 008°37'0 0.0
2017-Aug-07 08:30N 53°10' E 008°37'0 0.0
2017-Aug-07 08:00N 53°10' E 008°37'0 0.0
2017-Aug-07 07:30N 53°10' E 008°37'0 0.0
2017-Aug-07 07:01N 53°10' E 008°37'0 0.0
2017-Aug-07 06:30N 53°10' E 008°37'0 0.0
2017-Aug-07 06:00N 53°10' E 008°37'0 0.0
2017-Aug-07 05:30N 53°10' E 008°37'0 0.0
2017-Aug-07 05:00N 53°10' E 008°37'0 0.0
2017-Aug-07 04:30N 53°10' E 008°37'0 0.0
2017-Aug-07 04:00N 53°10' E 008°37'0 0.0
2017-Aug-07 03:30N 53°10' E 008°37'0 0.0
2017-Aug-07 03:00N 53°10' E 008°37'0 0.0
2017-Aug-07 02:30N 53°10' E 008°37'0 0.0
2017-Aug-07 02:00N 53°10' E 008°37'0 0.0
2017-Aug-07 01:30N 53°10' E 008°37'0 0.0
2017-Aug-07 01:00N 53°10' E 008°37'  

Dump ship's entire track history